sensor_id;sensor_type;location;lat;lon;timestamp;temperature;humidity
28763;DHT22;15918;51.270;6.522;2023-09-08T00:00:56;25.30;55.00
28763;DHT22;15918;51.270;6.522;2023-09-08T00:03:22;25.20;55.00
28763;DHT22;15918;51.270;6.522;2023-09-08T00:05:47;25.20;55.00
28763;DHT22;15918;51.270;6.522;2023-09-08T00:08:13;25.20;55.00
28763;DHT22;15918;51.270;6.522;2023-09-08T00:10:39;25.20;55.00
28763;DHT22;15918;51.270;6.522;2023-09-08T00:13:05;25.20;55.00
28763;DHT22;15918;51.270;6.522;2023-09-08T00:15:32;25.20;55.00
28763;DHT22;15918;51.270;6.522;2023-09-08T00:17:58;25.10;55.00
28763;DHT22;15918;51.270;6.522;2023-09-08T00:20:24;25.10;55.00
28763;DHT22;15918;51.270;6.522;2023-09-08T00:22:50;25.10;55.00
28763;DHT22;15918;51.270;6.522;2023-09-08T00:25:15;25.10;55.10
28763;DHT22;15918;51.270;6.522;2023-09-08T00:27:41;25.10;55.00
28763;DHT22;15918;51.270;6.522;2023-09-08T00:30:07;25.10;55.10
28763;DHT22;15918;51.270;6.522;2023-09-08T00:32:33;25.00;55.00
28763;DHT22;15918;51.270;6.522;2023-09-08T00:34:58;25.00;55.00
28763;DHT22;15918;51.270;6.522;2023-09-08T00:37:24;25.00;55.10
28763;DHT22;15918;51.270;6.522;2023-09-08T00:39:50;25.00;55.10
28763;DHT22;15918;51.270;6.522;2023-09-08T00:42:15;25.00;55.20
28763;DHT22;15918;51.270;6.522;2023-09-08T00:44:41;24.90;55.10
28763;DHT22;15918;51.270;6.522;2023-09-08T00:47:06;24.90;55.20
28763;DHT22;15918;51.270;6.522;2023-09-08T00:49:32;24.90;55.20
28763;DHT22;15918;51.270;6.522;2023-09-08T00:51:58;24.90;55.20
28763;DHT22;15918;51.270;6.522;2023-09-08T00:54:24;24.90;55.20
28763;DHT22;15918;51.270;6.522;2023-09-08T00:56:57;24.90;55.30
28763;DHT22;15918;51.270;6.522;2023-09-08T00:59:23;24.90;55.30
28763;DHT22;15918;51.270;6.522;2023-09-08T01:01:50;24.80;55.30
28763;DHT22;15918;51.270;6.522;2023-09-08T01:04:15;24.80;55.30
28763;DHT22;15918;51.270;6.522;2023-09-08T01:06:41;24.80;55.30
28763;DHT22;15918;51.270;6.522;2023-09-08T01:09:07;24.80;55.40
28763;DHT22;15918;51.270;6.522;2023-09-08T01:11:34;24.80;55.30
28763;DHT22;15918;51.270;6.522;2023-09-08T01:13:59;24.80;56.00
28763;DHT22;15918;51.270;6.522;2023-09-08T01:16:25;24.80;55.40
28763;DHT22;15918;51.270;6.522;2023-09-08T01:18:51;24.70;55.40
28763;DHT22;15918;51.270;6.522;2023-09-08T01:23:57;24.70;55.30
28763;DHT22;15918;51.270;6.522;2023-09-08T01:26:28;24.70;55.50
28763;DHT22;15918;51.270;6.522;2023-09-08T01:28:56;24.60;55.60
28763;DHT22;15918;51.270;6.522;2023-09-08T01:31:22;24.60;55.60
28763;DHT22;15918;51.270;6.522;2023-09-08T01:33:48;24.60;55.50
28763;DHT22;15918;51.270;6.522;2023-09-08T01:36:14;24.60;55.50
28763;DHT22;15918;51.270;6.522;2023-09-08T01:38:39;24.60;55.50
28763;DHT22;15918;51.270;6.522;2023-09-08T01:41:05;24.60;55.50
28763;DHT22;15918;51.270;6.522;2023-09-08T01:43:31;24.60;55.50
28763;DHT22;15918;51.270;6.522;2023-09-08T01:45:56;24.60;55.60
28763;DHT22;15918;51.270;6.522;2023-09-08T01:48:22;24.60;55.60
28763;DHT22;15918;51.270;6.522;2023-09-08T01:50:47;24.60;55.60
28763;DHT22;15918;51.270;6.522;2023-09-08T01:53:13;24.60;55.60
28763;DHT22;15918;51.270;6.522;2023-09-08T01:55:39;24.50;55.50
28763;DHT22;15918;51.270;6.522;2023-09-08T01:58:04;24.60;55.60
28763;DHT22;15918;51.270;6.522;2023-09-08T02:00:30;24.50;55.50
28763;DHT22;15918;51.270;6.522;2023-09-08T02:02:55;24.50;55.50
28763;DHT22;15918;51.270;6.522;2023-09-08T02:05:21;24.50;55.50
28763;DHT22;15918;51.270;6.522;2023-09-08T02:07:47;24.40;55.50
28763;DHT22;15918;51.270;6.522;2023-09-08T02:10:13;24.40;55.50
28763;DHT22;15918;51.270;6.522;2023-09-08T02:12:38;24.40;55.60
28763;DHT22;15918;51.270;6.522;2023-09-08T02:15:04;24.40;55.60
28763;DHT22;15918;51.270;6.522;2023-09-08T02:17:30;24.40;55.60
28763;DHT22;15918;51.270;6.522;2023-09-08T02:19:56;24.40;55.60
28763;DHT22;15918;51.270;6.522;2023-09-08T02:22:21;24.40;55.60
28763;DHT22;15918;51.270;6.522;2023-09-08T02:24:47;24.40;55.60
28763;DHT22;15918;51.270;6.522;2023-09-08T02:27:13;24.40;55.50
28763;DHT22;15918;51.270;6.522;2023-09-08T02:29:38;24.30;55.50
28763;DHT22;15918;51.270;6.522;2023-09-08T02:32:04;24.30;55.50
28763;DHT22;15918;51.270;6.522;2023-09-08T02:34:30;24.30;55.50
28763;DHT22;15918;51.270;6.522;2023-09-08T02:36:55;24.30;55.50
28763;DHT22;15918;51.270;6.522;2023-09-08T02:39:21;24.30;55.60
28763;DHT22;15918;51.270;6.522;2023-09-08T02:41:48;24.30;55.70
28763;DHT22;15918;51.270;6.522;2023-09-08T02:44:14;24.20;55.50
28763;DHT22;15918;51.270;6.522;2023-09-08T02:46:39;24.20;55.60
28763;DHT22;15918;51.270;6.522;2023-09-08T02:49:06;24.20;55.50
28763;DHT22;15918;51.270;6.522;2023-09-08T02:51:31;24.20;56.20
28763;DHT22;15918;51.270;6.522;2023-09-08T02:53:57;24.20;55.60
28763;DHT22;15918;51.270;6.522;2023-09-08T02:56:22;24.20;55.60
28763;DHT22;15918;51.270;6.522;2023-09-08T02:58:48;24.20;55.60
28763;DHT22;15918;51.270;6.522;2023-09-08T03:01:15;24.20;55.70
28763;DHT22;15918;51.270;6.522;2023-09-08T03:03:44;24.10;55.60
28763;DHT22;15918;51.270;6.522;2023-09-08T03:06:10;24.10;55.60
28763;DHT22;15918;51.270;6.522;2023-09-08T03:08:36;24.10;55.70
28763;DHT22;15918;51.270;6.522;2023-09-08T03:11:03;24.10;55.70
28763;DHT22;15918;51.270;6.522;2023-09-08T03:13:28;24.10;55.70
28763;DHT22;15918;51.270;6.522;2023-09-08T03:15:55;24.10;55.70
28763;DHT22;15918;51.270;6.522;2023-09-08T03:18:21;24.10;55.70
28763;DHT22;15918;51.270;6.522;2023-09-08T03:20:50;24.10;55.70
28763;DHT22;15918;51.270;6.522;2023-09-08T03:23:16;24.10;55.70
28763;DHT22;15918;51.270;6.522;2023-09-08T03:25:42;24.10;55.80
28763;DHT22;15918;51.270;6.522;2023-09-08T03:28:08;24.10;55.70
28763;DHT22;15918;51.270;6.522;2023-09-08T03:30:34;24.10;55.70
28763;DHT22;15918;51.270;6.522;2023-09-08T03:32:59;24.00;55.80
28763;DHT22;15918;51.270;6.522;2023-09-08T03:35:25;24.00;55.80
28763;DHT22;15918;51.270;6.522;2023-09-08T03:37:50;24.00;55.90
28763;DHT22;15918;51.270;6.522;2023-09-08T03:40:16;24.00;55.90
28763;DHT22;15918;51.270;6.522;2023-09-08T03:42:41;24.00;55.90
28763;DHT22;15918;51.270;6.522;2023-09-08T03:45:08;24.00;55.90
28763;DHT22;15918;51.270;6.522;2023-09-08T03:47:34;24.00;56.00
28763;DHT22;15918;51.270;6.522;2023-09-08T03:50:00;24.00;56.00
28763;DHT22;15918;51.270;6.522;2023-09-08T03:52:25;24.00;56.00
28763;DHT22;15918;51.270;6.522;2023-09-08T03:54:51;24.00;56.00
28763;DHT22;15918;51.270;6.522;2023-09-08T03:57:17;24.00;56.00
28763;DHT22;15918;51.270;6.522;2023-09-08T03:59:43;24.00;56.00
28763;DHT22;15918;51.270;6.522;2023-09-08T04:02:08;24.00;56.00
28763;DHT22;15918;51.270;6.522;2023-09-08T04:04:34;24.00;56.00
28763;DHT22;15918;51.270;6.522;2023-09-08T04:06:59;23.90;56.00
28763;DHT22;15918;51.270;6.522;2023-09-08T04:09:25;24.00;56.00
28763;DHT22;15918;51.270;6.522;2023-09-08T04:11:51;23.90;56.00
28763;DHT22;15918;51.270;6.522;2023-09-08T04:14:17;23.90;56.00
28763;DHT22;15918;51.270;6.522;2023-09-08T04:16:42;23.90;56.10
28763;DHT22;15918;51.270;6.522;2023-09-08T04:19:08;23.90;56.10
28763;DHT22;15918;51.270;6.522;2023-09-08T04:21:33;23.90;56.10
28763;DHT22;15918;51.270;6.522;2023-09-08T04:23:59;23.90;56.00
28763;DHT22;15918;51.270;6.522;2023-09-08T04:26:25;23.90;56.10
28763;DHT22;15918;51.270;6.522;2023-09-08T04:28:50;23.80;56.10
28763;DHT22;15918;51.270;6.522;2023-09-08T04:31:16;23.90;56.10
28763;DHT22;15918;51.270;6.522;2023-09-08T04:33:43;23.80;56.10
28763;DHT22;15918;51.270;6.522;2023-09-08T04:36:09;23.80;56.10
28763;DHT22;15918;51.270;6.522;2023-09-08T04:38:36;23.80;56.20
28763;DHT22;15918;51.270;6.522;2023-09-08T04:41:02;23.80;56.20
28763;DHT22;15918;51.270;6.522;2023-09-08T04:43:27;23.80;56.20
28763;DHT22;15918;51.270;6.522;2023-09-08T04:45:53;23.80;56.20
28763;DHT22;15918;51.270;6.522;2023-09-08T04:48:18;23.70;56.20
28763;DHT22;15918;51.270;6.522;2023-09-08T04:50:44;23.70;56.20
28763;DHT22;15918;51.270;6.522;2023-09-08T04:53:09;23.70;56.30
28763;DHT22;15918;51.270;6.522;2023-09-08T04:55:35;23.70;56.30
28763;DHT22;15918;51.270;6.522;2023-09-08T04:58:00;23.70;56.30
28763;DHT22;15918;51.270;6.522;2023-09-08T05:00:26;23.70;56.20
28763;DHT22;15918;51.270;6.522;2023-09-08T05:02:52;23.70;56.30
28763;DHT22;15918;51.270;6.522;2023-09-08T05:05:17;23.70;56.30
28763;DHT22;15918;51.270;6.522;2023-09-08T05:07:43;23.70;56.30
28763;DHT22;15918;51.270;6.522;2023-09-08T05:10:09;23.70;56.30
28763;DHT22;15918;51.270;6.522;2023-09-08T05:12:35;23.70;56.30
28763;DHT22;15918;51.270;6.522;2023-09-08T05:15:00;23.70;56.30
28763;DHT22;15918;51.270;6.522;2023-09-08T05:17:32;23.70;56.30
28763;DHT22;15918;51.270;6.522;2023-09-08T05:19:57;23.70;56.30
28763;DHT22;15918;51.270;6.522;2023-09-08T05:22:23;23.60;56.30
28763;DHT22;15918;51.270;6.522;2023-09-08T05:24:48;23.60;56.30
28763;DHT22;15918;51.270;6.522;2023-09-08T05:27:14;23.60;56.10
28763;DHT22;15918;51.270;6.522;2023-09-08T05:29:39;23.60;56.10
28763;DHT22;15918;51.270;6.522;2023-09-08T05:32:05;23.60;56.20
28763;DHT22;15918;51.270;6.522;2023-09-08T05:34:31;23.60;56.30
28763;DHT22;15918;51.270;6.522;2023-09-08T05:36:56;23.60;56.40
28763;DHT22;15918;51.270;6.522;2023-09-08T05:39:22;23.60;56.40
28763;DHT22;15918;51.270;6.522;2023-09-08T05:41:48;23.60;56.40
28763;DHT22;15918;51.270;6.522;2023-09-08T05:44:13;23.50;56.30
28763;DHT22;15918;51.270;6.522;2023-09-08T05:46:39;23.60;56.40
28763;DHT22;15918;51.270;6.522;2023-09-08T05:49:05;23.50;56.20
28763;DHT22;15918;51.270;6.522;2023-09-08T05:51:31;23.50;56.10
28763;DHT22;15918;51.270;6.522;2023-09-08T05:53:56;23.50;56.20
28763;DHT22;15918;51.270;6.522;2023-09-08T05:56:26;23.50;56.10
28763;DHT22;15918;51.270;6.522;2023-09-08T05:58:55;23.50;56.20
28763;DHT22;15918;51.270;6.522;2023-09-08T06:01:20;23.60;56.20
28763;DHT22;15918;51.270;6.522;2023-09-08T06:03:46;23.60;56.30
28763;DHT22;15918;51.270;6.522;2023-09-08T06:06:11;23.60;56.10
28763;DHT22;15918;51.270;6.522;2023-09-08T06:08:37;23.60;56.20
28763;DHT22;15918;51.270;6.522;2023-09-08T06:11:03;23.60;56.10
28763;DHT22;15918;51.270;6.522;2023-09-08T06:13:28;23.60;56.20
28763;DHT22;15918;51.270;6.522;2023-09-08T06:15:54;23.60;56.30
28763;DHT22;15918;51.270;6.522;2023-09-08T06:18:20;23.70;56.30
28763;DHT22;15918;51.270;6.522;2023-09-08T06:20:47;23.70;56.30
28763;DHT22;15918;51.270;6.522;2023-09-08T06:23:13;23.70;56.30
28763;DHT22;15918;51.270;6.522;2023-09-08T06:25:38;23.70;56.30
28763;DHT22;15918;51.270;6.522;2023-09-08T06:28:04;23.70;56.10
28763;DHT22;15918;51.270;6.522;2023-09-08T06:30:30;23.70;56.10
28763;DHT22;15918;51.270;6.522;2023-09-08T06:32:56;23.80;56.10
28763;DHT22;15918;51.270;6.522;2023-09-08T06:35:21;23.80;56.10
28763;DHT22;15918;51.270;6.522;2023-09-08T06:37:47;23.90;56.00
28763;DHT22;15918;51.270;6.522;2023-09-08T06:40:12;23.90;55.90
28763;DHT22;15918;51.270;6.522;2023-09-08T06:42:38;23.90;55.80
28763;DHT22;15918;51.270;6.522;2023-09-08T06:45:04;23.90;55.70
28763;DHT22;15918;51.270;6.522;2023-09-08T06:47:30;23.90;55.70
28763;DHT22;15918;51.270;6.522;2023-09-08T06:49:55;24.00;55.60
28763;DHT22;15918;51.270;6.522;2023-09-08T06:52:21;24.00;55.70
28763;DHT22;15918;51.270;6.522;2023-09-08T06:54:46;24.00;55.80
28763;DHT22;15918;51.270;6.522;2023-09-08T06:57:13;24.00;55.70
28763;DHT22;15918;51.270;6.522;2023-09-08T06:59:38;24.10;55.70
28763;DHT22;15918;51.270;6.522;2023-09-08T07:02:04;24.10;55.90
28763;DHT22;15918;51.270;6.522;2023-09-08T07:04:30;24.10;55.80
28763;DHT22;15918;51.270;6.522;2023-09-08T07:06:56;24.10;55.70
28763;DHT22;15918;51.270;6.522;2023-09-08T07:09:22;24.10;56.30
28763;DHT22;15918;51.270;6.522;2023-09-08T07:11:48;24.20;55.80
28763;DHT22;15918;51.270;6.522;2023-09-08T07:14:13;24.20;55.80
28763;DHT22;15918;51.270;6.522;2023-09-08T07:16:39;24.30;55.80
28763;DHT22;15918;51.270;6.522;2023-09-08T07:19:05;24.30;55.70
28763;DHT22;15918;51.270;6.522;2023-09-08T07:21:30;24.30;55.70
28763;DHT22;15918;51.270;6.522;2023-09-08T07:23:56;24.30;55.60
28763;DHT22;15918;51.270;6.522;2023-09-08T07:26:21;24.40;55.60
28763;DHT22;15918;51.270;6.522;2023-09-08T07:28:47;24.40;55.60
28763;DHT22;15918;51.270;6.522;2023-09-08T07:31:14;24.40;55.50
28763;DHT22;15918;51.270;6.522;2023-09-08T07:33:40;24.40;55.40
28763;DHT22;15918;51.270;6.522;2023-09-08T07:36:06;24.40;55.30
28763;DHT22;15918;51.270;6.522;2023-09-08T07:38:32;24.50;55.20
28763;DHT22;15918;51.270;6.522;2023-09-08T07:40:58;24.40;55.20
28763;DHT22;15918;51.270;6.522;2023-09-08T07:43:26;24.50;55.10
28763;DHT22;15918;51.270;6.522;2023-09-08T07:45:52;24.50;55.20
28763;DHT22;15918;51.270;6.522;2023-09-08T07:48:17;24.60;55.20
28763;DHT22;15918;51.270;6.522;2023-09-08T07:50:43;24.60;55.70
28763;DHT22;15918;51.270;6.522;2023-09-08T07:53:09;24.60;55.00
28763;DHT22;15918;51.270;6.522;2023-09-08T07:55:34;24.60;55.00
28763;DHT22;15918;51.270;6.522;2023-09-08T07:58:01;24.60;55.00
28763;DHT22;15918;51.270;6.522;2023-09-08T08:00:27;24.60;55.00
28763;DHT22;15918;51.270;6.522;2023-09-08T08:02:54;24.60;55.00
28763;DHT22;15918;51.270;6.522;2023-09-08T08:05:20;24.70;55.00
28763;DHT22;15918;51.270;6.522;2023-09-08T08:07:46;24.70;55.10
28763;DHT22;15918;51.270;6.522;2023-09-08T08:10:12;24.70;55.10
28763;DHT22;15918;51.270;6.522;2023-09-08T08:12:39;24.70;55.80
28763;DHT22;15918;51.270;6.522;2023-09-08T08:15:05;24.80;55.20
28763;DHT22;15918;51.270;6.522;2023-09-08T08:17:31;24.80;55.10
28763;DHT22;15918;51.270;6.522;2023-09-08T08:19:57;24.80;55.10
28763;DHT22;15918;51.270;6.522;2023-09-08T08:22:32;24.80;55.00
28763;DHT22;15918;51.270;6.522;2023-09-08T08:24:58;24.90;55.00
28763;DHT22;15918;51.270;6.522;2023-09-08T08:27:24;24.90;55.10
28763;DHT22;15918;51.270;6.522;2023-09-08T08:29:49;24.90;55.10
28763;DHT22;15918;51.270;6.522;2023-09-08T08:32:16;24.90;55.10
28763;DHT22;15918;51.270;6.522;2023-09-08T08:34:42;24.90;55.20
28763;DHT22;15918;51.270;6.522;2023-09-08T08:37:08;25.00;55.30
28763;DHT22;15918;51.270;6.522;2023-09-08T08:39:33;25.00;55.30
28763;DHT22;15918;51.270;6.522;2023-09-08T08:42:06;25.00;55.90
28763;DHT22;15918;51.270;6.522;2023-09-08T08:44:32;25.10;55.30
28763;DHT22;15918;51.270;6.522;2023-09-08T08:46:58;25.10;55.50
28763;DHT22;15918;51.270;6.522;2023-09-08T08:49:25;25.10;55.60
28763;DHT22;15918;51.270;6.522;2023-09-08T08:51:52;25.20;55.70
28763;DHT22;15918;51.270;6.522;2023-09-08T08:54:17;25.20;55.70
28763;DHT22;15918;51.270;6.522;2023-09-08T08:56:43;25.20;55.70
28763;DHT22;15918;51.270;6.522;2023-09-08T08:59:09;25.30;55.80
28763;DHT22;15918;51.270;6.522;2023-09-08T09:01:36;25.30;56.00
28763;DHT22;15918;51.270;6.522;2023-09-08T09:04:05;25.30;56.00
28763;DHT22;15918;51.270;6.522;2023-09-08T09:06:31;25.40;56.00
28763;DHT22;15918;51.270;6.522;2023-09-08T09:08:58;25.40;55.90
28763;DHT22;15918;51.270;6.522;2023-09-08T09:11:24;25.40;56.00
28763;DHT22;15918;51.270;6.522;2023-09-08T09:13:50;25.40;56.00
28763;DHT22;15918;51.270;6.522;2023-09-08T09:16:16;25.50;56.00
28763;DHT22;15918;51.270;6.522;2023-09-08T09:18:54;25.50;55.90
28763;DHT22;15918;51.270;6.522;2023-09-08T09:21:21;25.50;55.80
28763;DHT22;15918;51.270;6.522;2023-09-08T09:23:46;25.60;56.00
28763;DHT22;15918;51.270;6.522;2023-09-08T09:26:25;25.60;56.10
28763;DHT22;15918;51.270;6.522;2023-09-08T09:28:51;25.60;56.00
28763;DHT22;15918;51.270;6.522;2023-09-08T09:31:22;25.70;56.10
28763;DHT22;15918;51.270;6.522;2023-09-08T09:33:48;25.70;56.20
28763;DHT22;15918;51.270;6.522;2023-09-08T09:36:20;25.70;56.20
28763;DHT22;15918;51.270;6.522;2023-09-08T09:38:47;25.70;56.20
28763;DHT22;15918;51.270;6.522;2023-09-08T09:41:12;25.70;56.30
28763;DHT22;15918;51.270;6.522;2023-09-08T09:43:38;25.80;56.40
28763;DHT22;15918;51.270;6.522;2023-09-08T09:46:07;25.80;56.40
28763;DHT22;15918;51.270;6.522;2023-09-08T09:48:35;25.80;56.40
28763;DHT22;15918;51.270;6.522;2023-09-08T09:51:20;25.90;56.40
28763;DHT22;15918;51.270;6.522;2023-09-08T09:53:46;25.90;56.10
28763;DHT22;15918;51.270;6.522;2023-09-08T09:56:14;25.90;56.30
28763;DHT22;15918;51.270;6.522;2023-09-08T09:58:42;26.00;56.30
28763;DHT22;15918;51.270;6.522;2023-09-08T10:01:08;26.00;56.20
28763;DHT22;15918;51.270;6.522;2023-09-08T10:03:39;26.10;56.30
28763;DHT22;15918;51.270;6.522;2023-09-08T10:06:05;26.10;56.30
28763;DHT22;15918;51.270;6.522;2023-09-08T10:08:34;26.10;56.30
28763;DHT22;15918;51.270;6.522;2023-09-08T10:11:06;26.20;56.30
28763;DHT22;15918;51.270;6.522;2023-09-08T10:13:37;26.20;56.20
28763;DHT22;15918;51.270;6.522;2023-09-08T10:16:05;26.20;56.10
28763;DHT22;15918;51.270;6.522;2023-09-08T10:18:35;26.20;56.00
28763;DHT22;15918;51.270;6.522;2023-09-08T10:21:03;26.20;56.00
28763;DHT22;15918;51.270;6.522;2023-09-08T10:23:57;26.30;56.00
28763;DHT22;15918;51.270;6.522;2023-09-08T10:26:27;26.40;55.90
28763;DHT22;15918;51.270;6.522;2023-09-08T10:28:54;26.40;55.80
28763;DHT22;15918;51.270;6.522;2023-09-08T10:31:27;26.40;55.70
28763;DHT22;15918;51.270;6.522;2023-09-08T10:33:55;26.40;55.60
28763;DHT22;15918;51.270;6.522;2023-09-08T10:36:23;26.50;55.70
28763;DHT22;15918;51.270;6.522;2023-09-08T10:38:49;26.50;55.70
28763;DHT22;15918;51.270;6.522;2023-09-08T10:43:47;26.50;55.70
28763;DHT22;15918;51.270;6.522;2023-09-08T10:46:24;26.60;55.70
28763;DHT22;15918;51.270;6.522;2023-09-08T10:48:54;26.60;55.70
28763;DHT22;15918;51.270;6.522;2023-09-08T10:51:20;26.60;55.60
28763;DHT22;15918;51.270;6.522;2023-09-08T10:53:48;26.70;55.70
28763;DHT22;15918;51.270;6.522;2023-09-08T10:56:15;26.70;55.70
28763;DHT22;15918;51.270;6.522;2023-09-08T10:58:42;26.70;55.70
28763;DHT22;15918;51.270;6.522;2023-09-08T11:01:20;26.70;55.60
28763;DHT22;15918;51.270;6.522;2023-09-08T11:03:53;26.80;55.40
28763;DHT22;15918;51.270;6.522;2023-09-08T11:06:20;26.80;55.30
28763;DHT22;15918;51.270;6.522;2023-09-08T11:08:49;26.80;55.40
28763;DHT22;15918;51.270;6.522;2023-09-08T11:11:18;26.80;55.30
28763;DHT22;15918;51.270;6.522;2023-09-08T11:13:43;26.90;55.20
28763;DHT22;15918;51.270;6.522;2023-09-08T11:16:11;26.90;55.20
28763;DHT22;15918;51.270;6.522;2023-09-08T11:18:37;26.90;55.10
28763;DHT22;15918;51.270;6.522;2023-09-08T11:21:06;27.00;55.10
28763;DHT22;15918;51.270;6.522;2023-09-08T11:23:33;27.00;55.10
28763;DHT22;15918;51.270;6.522;2023-09-08T11:25:59;27.00;55.10
28763;DHT22;15918;51.270;6.522;2023-09-08T11:28:26;27.00;55.60
28763;DHT22;15918;51.270;6.522;2023-09-08T11:30:54;27.10;55.10
28763;DHT22;15918;51.270;6.522;2023-09-08T11:33:23;27.10;55.00
28763;DHT22;15918;51.270;6.522;2023-09-08T11:35:53;27.10;54.80
28763;DHT22;15918;51.270;6.522;2023-09-08T11:38:27;27.20;54.70
28763;DHT22;15918;51.270;6.522;2023-09-08T11:40:54;27.20;54.50
28763;DHT22;15918;51.270;6.522;2023-09-08T11:43:21;27.20;54.40
28763;DHT22;15918;51.270;6.522;2023-09-08T11:45:47;27.20;54.50
28763;DHT22;15918;51.270;6.522;2023-09-08T11:48:14;27.30;54.50
28763;DHT22;15918;51.270;6.522;2023-09-08T11:50:42;27.30;54.50
28763;DHT22;15918;51.270;6.522;2023-09-08T11:53:08;27.30;54.50
28763;DHT22;15918;51.270;6.522;2023-09-08T11:55:34;27.40;54.60
28763;DHT22;15918;51.270;6.522;2023-09-08T11:58:01;27.40;54.60
28763;DHT22;15918;51.270;6.522;2023-09-08T12:00:27;27.40;54.50
28763;DHT22;15918;51.270;6.522;2023-09-08T12:02:53;27.40;54.40
28763;DHT22;15918;51.270;6.522;2023-09-08T12:07:56;27.50;54.30
28763;DHT22;15918;51.270;6.522;2023-09-08T12:10:23;27.50;54.40
28763;DHT22;15918;51.270;6.522;2023-09-08T12:12:53;27.60;54.40
28763;DHT22;15918;51.270;6.522;2023-09-08T12:15:36;27.60;54.40
28763;DHT22;15918;51.270;6.522;2023-09-08T12:18:04;27.60;54.30
28763;DHT22;15918;51.270;6.522;2023-09-08T12:20:30;27.60;54.10
28763;DHT22;15918;51.270;6.522;2023-09-08T12:23:04;27.60;54.10
28763;DHT22;15918;51.270;6.522;2023-09-08T12:25:30;27.60;53.90
28763;DHT22;15918;51.270;6.522;2023-09-08T12:28:00;27.60;53.80
28763;DHT22;15918;51.270;6.522;2023-09-08T12:30:28;27.70;54.00
28763;DHT22;15918;51.270;6.522;2023-09-08T12:32:59;27.70;53.80
28763;DHT22;15918;51.270;6.522;2023-09-08T12:35:26;27.70;53.60
28763;DHT22;15918;51.270;6.522;2023-09-08T12:38:04;27.70;53.60
28763;DHT22;15918;51.270;6.522;2023-09-08T12:40:34;27.70;53.70
28763;DHT22;15918;51.270;6.522;2023-09-08T12:43:00;27.80;53.90
28763;DHT22;15918;51.270;6.522;2023-09-08T12:45:27;27.80;53.90
28763;DHT22;15918;51.270;6.522;2023-09-08T12:47:54;27.80;53.90
28763;DHT22;15918;51.270;6.522;2023-09-08T12:50:23;27.80;53.90
28763;DHT22;15918;51.270;6.522;2023-09-08T12:52:49;27.80;53.90
28763;DHT22;15918;51.270;6.522;2023-09-08T12:55:14;27.90;53.90
28763;DHT22;15918;51.270;6.522;2023-09-08T12:57:40;27.90;53.90
28763;DHT22;15918;51.270;6.522;2023-09-08T13:00:06;27.90;53.80
28763;DHT22;15918;51.270;6.522;2023-09-08T13:02:33;27.90;53.70
28763;DHT22;15918;51.270;6.522;2023-09-08T13:04:58;28.00;53.90
28763;DHT22;15918;51.270;6.522;2023-09-08T13:07:24;28.00;53.80
28763;DHT22;15918;51.270;6.522;2023-09-08T13:09:50;28.00;53.90
28763;DHT22;15918;51.270;6.522;2023-09-08T13:12:18;28.00;53.80
28763;DHT22;15918;51.270;6.522;2023-09-08T13:14:44;28.00;53.50
28763;DHT22;15918;51.270;6.522;2023-09-08T13:17:13;28.00;53.50
28763;DHT22;15918;51.270;6.522;2023-09-08T13:19:41;28.10;53.40
28763;DHT22;15918;51.270;6.522;2023-09-08T13:22:06;28.10;53.60
28763;DHT22;15918;51.270;6.522;2023-09-08T13:24:32;28.10;53.50
28763;DHT22;15918;51.270;6.522;2023-09-08T13:26:59;28.10;53.50
28763;DHT22;15918;51.270;6.522;2023-09-08T13:29:25;28.10;53.50
28763;DHT22;15918;51.270;6.522;2023-09-08T13:31:52;28.10;53.50
28763;DHT22;15918;51.270;6.522;2023-09-08T13:34:18;28.10;53.20
28763;DHT22;15918;51.270;6.522;2023-09-08T13:36:43;28.10;53.10
28763;DHT22;15918;51.270;6.522;2023-09-08T13:39:09;28.20;53.10
28763;DHT22;15918;51.270;6.522;2023-09-08T13:41:49;28.20;53.10
28763;DHT22;15918;51.270;6.522;2023-09-08T13:44:17;28.20;53.00
28763;DHT22;15918;51.270;6.522;2023-09-08T13:46:43;28.20;53.00
28763;DHT22;15918;51.270;6.522;2023-09-08T13:49:08;28.20;53.00
28763;DHT22;15918;51.270;6.522;2023-09-08T13:51:34;28.20;52.80
28763;DHT22;15918;51.270;6.522;2023-09-08T13:53:59;28.20;52.90
28763;DHT22;15918;51.270;6.522;2023-09-08T13:56:25;28.20;52.90
28763;DHT22;15918;51.270;6.522;2023-09-08T13:58:51;28.20;53.00
28763;DHT22;15918;51.270;6.522;2023-09-08T14:01:17;28.20;52.70
28763;DHT22;15918;51.270;6.522;2023-09-08T14:03:43;28.30;52.80
28763;DHT22;15918;51.270;6.522;2023-09-08T14:06:08;28.20;52.80
28763;DHT22;15918;51.270;6.522;2023-09-08T14:08:34;28.20;52.80
28763;DHT22;15918;51.270;6.522;2023-09-08T14:10:59;28.30;52.70
28763;DHT22;15918;51.270;6.522;2023-09-08T14:13:25;28.30;52.60
28763;DHT22;15918;51.270;6.522;2023-09-08T14:15:51;28.30;52.50
28763;DHT22;15918;51.270;6.522;2023-09-08T14:18:16;28.30;52.30
28763;DHT22;15918;51.270;6.522;2023-09-08T14:20:42;28.20;52.20
28763;DHT22;15918;51.270;6.522;2023-09-08T14:23:08;28.30;52.40
28763;DHT22;15918;51.270;6.522;2023-09-08T14:25:34;28.30;52.40
28763;DHT22;15918;51.270;6.522;2023-09-08T14:28:00;28.30;52.50
28763;DHT22;15918;51.270;6.522;2023-09-08T14:30:29;28.30;52.40
28763;DHT22;15918;51.270;6.522;2023-09-08T14:32:54;28.30;52.40
28763;DHT22;15918;51.270;6.522;2023-09-08T14:35:20;28.30;52.30
28763;DHT22;15918;51.270;6.522;2023-09-08T14:37:49;28.30;52.30
28763;DHT22;15918;51.270;6.522;2023-09-08T14:40:15;28.30;52.40
28763;DHT22;15918;51.270;6.522;2023-09-08T14:42:41;28.30;52.40
28763;DHT22;15918;51.270;6.522;2023-09-08T14:45:07;28.30;52.40
28763;DHT22;15918;51.270;6.522;2023-09-08T14:47:33;28.30;52.20
28763;DHT22;15918;51.270;6.522;2023-09-08T14:49:59;28.30;52.30
28763;DHT22;15918;51.270;6.522;2023-09-08T14:52:25;28.30;52.30
28763;DHT22;15918;51.270;6.522;2023-09-08T14:54:50;28.30;52.40
28763;DHT22;15918;51.270;6.522;2023-09-08T14:57:16;28.30;52.50
28763;DHT22;15918;51.270;6.522;2023-09-08T14:59:41;28.30;52.40
28763;DHT22;15918;51.270;6.522;2023-09-08T15:02:08;28.30;52.40
28763;DHT22;15918;51.270;6.522;2023-09-08T15:04:34;28.30;52.50
28763;DHT22;15918;51.270;6.522;2023-09-08T15:07:00;28.30;52.60
28763;DHT22;15918;51.270;6.522;2023-09-08T15:09:25;28.30;52.70
28763;DHT22;15918;51.270;6.522;2023-09-08T15:11:51;28.30;52.80
28763;DHT22;15918;51.270;6.522;2023-09-08T15:14:16;28.30;52.60
28763;DHT22;15918;51.270;6.522;2023-09-08T15:16:42;28.30;52.60
28763;DHT22;15918;51.270;6.522;2023-09-08T15:19:08;28.30;52.50
28763;DHT22;15918;51.270;6.522;2023-09-08T15:21:33;28.30;52.60
28763;DHT22;15918;51.270;6.522;2023-09-08T15:24:00;28.40;52.70
28763;DHT22;15918;51.270;6.522;2023-09-08T15:26:25;28.30;52.70
28763;DHT22;15918;51.270;6.522;2023-09-08T15:28:51;28.30;52.90
28763;DHT22;15918;51.270;6.522;2023-09-08T15:31:16;28.30;52.80
28763;DHT22;15918;51.270;6.522;2023-09-08T15:33:42;28.40;52.80